KPLN

Pellston Regional of Emmet County Airport

Pellston, Michigan, USA
METAR KPLN 151354Z AUTO VRB03KT 10SM CLR 23/15 A2997 RMK AO2 SLP147 T02280150
Observed Flight Rules
Aug-15 @ 13:54 UTC (an hour ago) Visual Flight Rules
Wind Visibility Clouds
Variable at 3 knots 10 miles
  • Clear skies
Temperatures Readings
Current 23°C / 73°F
Dewpoint 15°C / 59°F
Humidity 61%
Altimeter 29.97" Hg
Pressure 1014.7 hPa
Elevation 217
METAR KPLN 151354Z AUTO VRB03KT 10SM CLR 23/15 A2997 RMK AO2 SLP147 T02280150
Observed Flight Rules
Aug-15 @ 13:54 UTC
(an hour ago)
VFR
Wind Visibility
Variable at 3 knots 10 miles
Clouds
  • Clear skies
Temperature Dewpoint
23°C / 73°F 15°C / 59°F
Humidity Altimeter Pressure
61% 29.97" Hg 1014.7 hPa